sensor_id;sensor_type;location;lat;lon;timestamp;P1;durP1;ratioP1;P2;durP2;ratioP2
8001;SDS011;4046;48.774;8.732;2023-09-18T00:00:49;1.60;;;1.50;;
8001;SDS011;4046;48.774;8.732;2023-09-18T00:03:19;1.73;;;1.63;;
8001;SDS011;4046;48.774;8.732;2023-09-18T00:05:48;2.00;;;1.80;;
8001;SDS011;4046;48.774;8.732;2023-09-18T00:08:15;1.40;;;1.30;;
8001;SDS011;4046;48.774;8.732;2023-09-18T00:10:41;2.10;;;1.47;;
8001;SDS011;4046;48.774;8.732;2023-09-18T00:13:08;1.60;;;1.50;;
8001;SDS011;4046;48.774;8.732;2023-09-18T00:15:34;1.83;;;1.47;;
8001;SDS011;4046;48.774;8.732;2023-09-18T00:17:59;1.63;;;1.53;;
8001;SDS011;4046;48.774;8.732;2023-09-18T00:20:26;1.60;;;1.50;;
8001;SDS011;4046;48.774;8.732;2023-09-18T00:22:54;1.40;;;1.30;;
8001;SDS011;4046;48.774;8.732;2023-09-18T00:25:21;1.30;;;1.20;;
8001;SDS011;4046;48.774;8.732;2023-09-18T00:27:47;1.60;;;1.47;;
8001;SDS011;4046;48.774;8.732;2023-09-18T00:30:13;1.70;;;1.50;;
8001;SDS011;4046;48.774;8.732;2023-09-18T00:32:39;2.03;;;1.60;;
8001;SDS011;4046;48.774;8.732;2023-09-18T00:35:05;1.63;;;1.47;;
8001;SDS011;4046;48.774;8.732;2023-09-18T00:37:31;1.93;;;1.30;;
8001;SDS011;4046;48.774;8.732;2023-09-18T00:39:56;1.60;;;1.50;;
8001;SDS011;4046;48.774;8.732;2023-09-18T00:42:22;1.50;;;1.40;;
8001;SDS011;4046;48.774;8.732;2023-09-18T00:44:49;2.60;;;1.53;;
8001;SDS011;4046;48.774;8.732;2023-09-18T00:47:18;1.30;;;1.20;;
8001;SDS011;4046;48.774;8.732;2023-09-18T00:49:46;1.60;;;1.50;;
8001;SDS011;4046;48.774;8.732;2023-09-18T00:52:13;1.93;;;1.60;;
8001;SDS011;4046;48.774;8.732;2023-09-18T00:54:40;1.80;;;1.70;;
8001;SDS011;4046;48.774;8.732;2023-09-18T00:57:08;1.50;;;1.40;;
8001;SDS011;4046;48.774;8.732;2023-09-18T00:59:35;1.67;;;1.57;;
8001;SDS011;4046;48.774;8.732;2023-09-18T01:02:02;1.80;;;1.70;;
8001;SDS011;4046;48.774;8.732;2023-09-18T01:04:28;1.63;;;1.50;;
8001;SDS011;4046;48.774;8.732;2023-09-18T01:06:55;1.30;;;1.20;;
8001;SDS011;4046;48.774;8.732;2023-09-18T01:09:23;1.60;;;1.50;;
8001;SDS011;4046;48.774;8.732;2023-09-18T01:11:52;1.93;;;1.70;;
8001;SDS011;4046;48.774;8.732;2023-09-18T01:16:59;1.57;;;1.47;;
8001;SDS011;4046;48.774;8.732;2023-09-18T01:19:36;1.50;;;1.40;;
8001;SDS011;4046;48.774;8.732;2023-09-18T01:22:03;1.73;;;1.53;;
8001;SDS011;4046;48.774;8.732;2023-09-18T01:24:31;1.70;;;1.60;;
8001;SDS011;4046;48.774;8.732;2023-09-18T01:27:00;1.77;;;1.67;;
8001;SDS011;4046;48.774;8.732;2023-09-18T01:29:26;1.30;;;1.20;;
8001;SDS011;4046;48.774;8.732;2023-09-18T01:31:52;1.50;;;1.40;;
8001;SDS011;4046;48.774;8.732;2023-09-18T01:34:19;1.83;;;1.40;;
8001;SDS011;4046;48.774;8.732;2023-09-18T01:36:50;1.90;;;1.80;;
8001;SDS011;4046;48.774;8.732;2023-09-18T01:39:17;2.03;;;1.43;;
8001;SDS011;4046;48.774;8.732;2023-09-18T01:41:44;2.17;;;1.73;;
8001;SDS011;4046;48.774;8.732;2023-09-18T01:44:11;1.63;;;1.53;;
8001;SDS011;4046;48.774;8.732;2023-09-18T01:46:36;2.07;;;1.57;;
8001;SDS011;4046;48.774;8.732;2023-09-18T01:49:03;1.50;;;1.40;;
8001;SDS011;4046;48.774;8.732;2023-09-18T01:51:29;1.50;;;1.40;;
8001;SDS011;4046;48.774;8.732;2023-09-18T01:53:55;1.50;;;1.40;;
8001;SDS011;4046;48.774;8.732;2023-09-18T01:56:21;1.60;;;1.50;;
8001;SDS011;4046;48.774;8.732;2023-09-18T01:58:48;1.83;;;1.73;;
8001;SDS011;4046;48.774;8.732;2023-09-18T02:01:14;1.40;;;1.30;;
8001;SDS011;4046;48.774;8.732;2023-09-18T02:03:40;1.80;;;1.70;;
8001;SDS011;4046;48.774;8.732;2023-09-18T02:06:06;1.70;;;1.60;;
8001;SDS011;4046;48.774;8.732;2023-09-18T02:08:34;1.57;;;1.40;;
8001;SDS011;4046;48.774;8.732;2023-09-18T02:11:00;1.70;;;1.53;;
8001;SDS011;4046;48.774;8.732;2023-09-18T02:13:27;2.27;;;1.63;;
8001;SDS011;4046;48.774;8.732;2023-09-18T02:15:53;1.60;;;1.50;;
8001;SDS011;4046;48.774;8.732;2023-09-18T02:18:19;2.17;;;1.80;;
8001;SDS011;4046;48.774;8.732;2023-09-18T02:20:45;1.70;;;1.60;;
8001;SDS011;4046;48.774;8.732;2023-09-18T02:23:17;1.43;;;1.33;;
8001;SDS011;4046;48.774;8.732;2023-09-18T02:25:44;1.60;;;1.50;;
8001;SDS011;4046;48.774;8.732;2023-09-18T02:28:10;1.53;;;1.43;;
8001;SDS011;4046;48.774;8.732;2023-09-18T02:30:37;1.97;;;1.33;;
8001;SDS011;4046;48.774;8.732;2023-09-18T02:33:03;2.20;;;2.00;;
8001;SDS011;4046;48.774;8.732;2023-09-18T02:35:29;1.63;;;1.43;;
8001;SDS011;4046;48.774;8.732;2023-09-18T02:37:56;2.20;;;1.90;;
8001;SDS011;4046;48.774;8.732;2023-09-18T02:40:22;1.57;;;1.47;;
8001;SDS011;4046;48.774;8.732;2023-09-18T02:42:48;1.50;;;1.40;;
8001;SDS011;4046;48.774;8.732;2023-09-18T02:45:13;1.53;;;1.43;;
8001;SDS011;4046;48.774;8.732;2023-09-18T02:47:39;1.60;;;1.50;;
8001;SDS011;4046;48.774;8.732;2023-09-18T02:50:06;1.67;;;1.57;;
8001;SDS011;4046;48.774;8.732;2023-09-18T02:52:32;1.73;;;1.60;;
8001;SDS011;4046;48.774;8.732;2023-09-18T02:54:58;1.60;;;1.50;;
8001;SDS011;4046;48.774;8.732;2023-09-18T02:57:24;1.70;;;1.60;;
8001;SDS011;4046;48.774;8.732;2023-09-18T02:59:49;1.40;;;1.30;;
8001;SDS011;4046;48.774;8.732;2023-09-18T03:02:15;1.50;;;1.40;;
8001;SDS011;4046;48.774;8.732;2023-09-18T03:04:41;1.60;;;1.50;;
8001;SDS011;4046;48.774;8.732;2023-09-18T03:07:06;1.90;;;1.80;;
8001;SDS011;4046;48.774;8.732;2023-09-18T03:09:32;1.60;;;1.50;;
8001;SDS011;4046;48.774;8.732;2023-09-18T03:11:58;1.50;;;1.40;;
8001;SDS011;4046;48.774;8.732;2023-09-18T03:14:23;1.50;;;1.40;;
8001;SDS011;4046;48.774;8.732;2023-09-18T03:16:49;1.70;;;1.60;;
8001;SDS011;4046;48.774;8.732;2023-09-18T03:19:15;1.80;;;1.70;;
8001;SDS011;4046;48.774;8.732;2023-09-18T03:21:41;1.80;;;1.70;;
8001;SDS011;4046;48.774;8.732;2023-09-18T03:24:06;1.97;;;1.77;;
8001;SDS011;4046;48.774;8.732;2023-09-18T03:26:33;1.70;;;1.50;;
8001;SDS011;4046;48.774;8.732;2023-09-18T03:28:58;1.67;;;1.57;;
8001;SDS011;4046;48.774;8.732;2023-09-18T03:31:24;1.60;;;1.50;;
8001;SDS011;4046;48.774;8.732;2023-09-18T03:33:50;1.50;;;1.40;;
8001;SDS011;4046;48.774;8.732;2023-09-18T03:36:16;1.90;;;1.70;;
8001;SDS011;4046;48.774;8.732;2023-09-18T03:38:41;1.73;;;1.60;;
8001;SDS011;4046;48.774;8.732;2023-09-18T03:41:07;1.63;;;1.53;;
8001;SDS011;4046;48.774;8.732;2023-09-18T03:43:33;1.33;;;1.23;;
8001;SDS011;4046;48.774;8.732;2023-09-18T03:46:02;1.80;;;1.70;;
8001;SDS011;4046;48.774;8.732;2023-09-18T03:48:32;1.50;;;1.40;;
8001;SDS011;4046;48.774;8.732;2023-09-18T03:51:05;1.73;;;1.60;;
8001;SDS011;4046;48.774;8.732;2023-09-18T03:53:32;1.90;;;1.80;;
8001;SDS011;4046;48.774;8.732;2023-09-18T03:55:58;1.77;;;1.67;;
8001;SDS011;4046;48.774;8.732;2023-09-18T03:58:24;2.00;;;1.77;;
8001;SDS011;4046;48.774;8.732;2023-09-18T04:00:50;1.53;;;1.43;;
8001;SDS011;4046;48.774;8.732;2023-09-18T04:03:16;2.57;;;1.50;;
8001;SDS011;4046;48.774;8.732;2023-09-18T04:05:42;2.20;;;2.00;;
8001;SDS011;4046;48.774;8.732;2023-09-18T04:08:08;1.87;;;1.67;;
8001;SDS011;4046;48.774;8.732;2023-09-18T04:10:34;1.63;;;1.53;;
8001;SDS011;4046;48.774;8.732;2023-09-18T04:13:00;1.57;;;1.40;;
8001;SDS011;4046;48.774;8.732;2023-09-18T04:15:25;1.90;;;1.43;;
8001;SDS011;4046;48.774;8.732;2023-09-18T04:17:52;1.63;;;1.53;;
8001;SDS011;4046;48.774;8.732;2023-09-18T04:20:18;1.73;;;1.63;;
8001;SDS011;4046;48.774;8.732;2023-09-18T04:22:45;1.83;;;1.40;;
8001;SDS011;4046;48.774;8.732;2023-09-18T04:25:15;2.50;;;1.93;;
8001;SDS011;4046;48.774;8.732;2023-09-18T04:27:41;1.90;;;1.47;;
8001;SDS011;4046;48.774;8.732;2023-09-18T04:30:07;1.70;;;1.40;;
8001;SDS011;4046;48.774;8.732;2023-09-18T04:32:36;2.47;;;1.60;;
8001;SDS011;4046;48.774;8.732;2023-09-18T04:35:03;1.87;;;1.67;;
8001;SDS011;4046;48.774;8.732;2023-09-18T04:37:30;1.60;;;1.50;;
8001;SDS011;4046;48.774;8.732;2023-09-18T04:39:57;2.27;;;1.57;;
8001;SDS011;4046;48.774;8.732;2023-09-18T04:42:23;1.67;;;1.57;;
8001;SDS011;4046;48.774;8.732;2023-09-18T04:44:49;2.13;;;1.70;;
8001;SDS011;4046;48.774;8.732;2023-09-18T04:47:15;1.60;;;1.50;;
8001;SDS011;4046;48.774;8.732;2023-09-18T04:49:41;2.73;;;1.60;;
8001;SDS011;4046;48.774;8.732;2023-09-18T04:52:06;2.60;;;1.70;;
8001;SDS011;4046;48.774;8.732;2023-09-18T04:54:32;1.60;;;1.30;;
8001;SDS011;4046;48.774;8.732;2023-09-18T04:56:58;2.03;;;1.50;;
8001;SDS011;4046;48.774;8.732;2023-09-18T04:59:24;1.60;;;1.50;;
8001;SDS011;4046;48.774;8.732;2023-09-18T05:01:49;2.33;;;1.50;;
8001;SDS011;4046;48.774;8.732;2023-09-18T05:04:15;3.10;;;1.40;;
8001;SDS011;4046;48.774;8.732;2023-09-18T05:06:41;1.60;;;1.40;;
8001;SDS011;4046;48.774;8.732;2023-09-18T05:09:07;1.93;;;1.70;;
8001;SDS011;4046;48.774;8.732;2023-09-18T05:11:33;1.63;;;1.40;;
8001;SDS011;4046;48.774;8.732;2023-09-18T05:13:59;1.67;;;1.57;;
8001;SDS011;4046;48.774;8.732;2023-09-18T05:16:25;1.90;;;1.70;;
8001;SDS011;4046;48.774;8.732;2023-09-18T05:18:50;3.00;;;1.53;;
8001;SDS011;4046;48.774;8.732;2023-09-18T05:21:16;1.80;;;1.70;;
8001;SDS011;4046;48.774;8.732;2023-09-18T05:23:47;1.60;;;1.50;;
8001;SDS011;4046;48.774;8.732;2023-09-18T05:26:13;1.70;;;1.60;;
8001;SDS011;4046;48.774;8.732;2023-09-18T05:28:39;4.50;;;1.40;;
8001;SDS011;4046;48.774;8.732;2023-09-18T05:31:04;1.83;;;1.50;;
8001;SDS011;4046;48.774;8.732;2023-09-18T05:33:30;1.87;;;1.67;;
8001;SDS011;4046;48.774;8.732;2023-09-18T05:35:56;2.33;;;2.00;;
8001;SDS011;4046;48.774;8.732;2023-09-18T05:38:22;1.60;;;1.50;;
8001;SDS011;4046;48.774;8.732;2023-09-18T05:40:47;2.30;;;1.80;;
8001;SDS011;4046;48.774;8.732;2023-09-18T05:43:13;2.23;;;1.80;;
8001;SDS011;4046;48.774;8.732;2023-09-18T05:45:39;2.77;;;1.60;;
8001;SDS011;4046;48.774;8.732;2023-09-18T05:48:05;2.37;;;1.80;;
8001;SDS011;4046;48.774;8.732;2023-09-18T05:50:33;2.23;;;1.50;;
8001;SDS011;4046;48.774;8.732;2023-09-18T05:53:01;3.60;;;1.43;;
8001;SDS011;4046;48.774;8.732;2023-09-18T05:55:32;1.67;;;1.47;;
8001;SDS011;4046;48.774;8.732;2023-09-18T05:57:59;3.90;;;1.73;;
8001;SDS011;4046;48.774;8.732;2023-09-18T06:00:25;3.27;;;1.80;;
8001;SDS011;4046;48.774;8.732;2023-09-18T06:02:51;1.80;;;1.50;;
8001;SDS011;4046;48.774;8.732;2023-09-18T06:05:17;2.13;;;1.53;;
8001;SDS011;4046;48.774;8.732;2023-09-18T06:07:46;4.53;;;2.00;;
8001;SDS011;4046;48.774;8.732;2023-09-18T06:10:15;2.03;;;1.37;;
8001;SDS011;4046;48.774;8.732;2023-09-18T06:12:43;2.13;;;1.93;;
8001;SDS011;4046;48.774;8.732;2023-09-18T06:15:09;1.83;;;1.63;;
8001;SDS011;4046;48.774;8.732;2023-09-18T06:17:40;3.70;;;2.00;;
8001;SDS011;4046;48.774;8.732;2023-09-18T06:20:07;2.13;;;1.50;;
8001;SDS011;4046;48.774;8.732;2023-09-18T06:22:38;2.67;;;1.90;;
8001;SDS011;4046;48.774;8.732;2023-09-18T06:25:05;2.37;;;1.83;;
8001;SDS011;4046;48.774;8.732;2023-09-18T06:27:33;1.87;;;1.40;;
8001;SDS011;4046;48.774;8.732;2023-09-18T06:30:00;2.47;;;1.80;;
8001;SDS011;4046;48.774;8.732;2023-09-18T06:32:26;2.93;;;2.00;;
8001;SDS011;4046;48.774;8.732;2023-09-18T06:34:52;2.03;;;1.67;;
8001;SDS011;4046;48.774;8.732;2023-09-18T06:37:18;2.10;;;1.60;;
8001;SDS011;4046;48.774;8.732;2023-09-18T06:39:44;2.37;;;1.60;;
8001;SDS011;4046;48.774;8.732;2023-09-18T06:42:10;2.37;;;1.80;;
8001;SDS011;4046;48.774;8.732;2023-09-18T06:44:35;2.43;;;1.53;;
8001;SDS011;4046;48.774;8.732;2023-09-18T06:47:01;2.10;;;1.60;;
8001;SDS011;4046;48.774;8.732;2023-09-18T06:49:27;1.93;;;1.60;;
8001;SDS011;4046;48.774;8.732;2023-09-18T06:51:52;2.20;;;1.67;;
8001;SDS011;4046;48.774;8.732;2023-09-18T06:54:18;2.53;;;1.70;;
8001;SDS011;4046;48.774;8.732;2023-09-18T06:56:43;4.20;;;1.53;;
8001;SDS011;4046;48.774;8.732;2023-09-18T06:59:10;2.40;;;1.50;;
8001;SDS011;4046;48.774;8.732;2023-09-18T07:01:37;2.03;;;1.27;;
8001;SDS011;4046;48.774;8.732;2023-09-18T07:04:03;5.17;;;1.60;;
8001;SDS011;4046;48.774;8.732;2023-09-18T07:06:30;3.33;;;1.97;;
8001;SDS011;4046;48.774;8.732;2023-09-18T07:08:55;3.10;;;1.60;;
8001;SDS011;4046;48.774;8.732;2023-09-18T07:11:21;1.70;;;1.60;;
8001;SDS011;4046;48.774;8.732;2023-09-18T07:13:47;2.10;;;1.70;;
8001;SDS011;4046;48.774;8.732;2023-09-18T07:16:13;1.57;;;1.37;;
8001;SDS011;4046;48.774;8.732;2023-09-18T07:18:38;2.03;;;1.40;;
8001;SDS011;4046;48.774;8.732;2023-09-18T07:21:04;2.40;;;1.40;;
8001;SDS011;4046;48.774;8.732;2023-09-18T07:23:30;1.90;;;1.33;;
8001;SDS011;4046;48.774;8.732;2023-09-18T07:25:56;2.33;;;1.63;;
8001;SDS011;4046;48.774;8.732;2023-09-18T07:28:23;1.80;;;1.30;;
8001;SDS011;4046;48.774;8.732;2023-09-18T07:30:50;1.40;;;1.10;;
8001;SDS011;4046;48.774;8.732;2023-09-18T07:33:15;1.67;;;1.33;;
8001;SDS011;4046;48.774;8.732;2023-09-18T07:35:45;2.93;;;1.37;;
8001;SDS011;4046;48.774;8.732;2023-09-18T07:38:12;1.40;;;1.20;;
8001;SDS011;4046;48.774;8.732;2023-09-18T07:40:38;1.60;;;1.40;;
8001;SDS011;4046;48.774;8.732;2023-09-18T07:43:03;2.00;;;1.43;;
8001;SDS011;4046;48.774;8.732;2023-09-18T07:45:29;2.10;;;1.20;;
8001;SDS011;4046;48.774;8.732;2023-09-18T07:47:55;1.57;;;1.43;;
8001;SDS011;4046;48.774;8.732;2023-09-18T07:50:20;1.93;;;1.33;;
8001;SDS011;4046;48.774;8.732;2023-09-18T07:52:46;2.30;;;1.70;;
8001;SDS011;4046;48.774;8.732;2023-09-18T07:55:12;1.97;;;1.23;;
8001;SDS011;4046;48.774;8.732;2023-09-18T07:57:38;1.60;;;1.40;;
8001;SDS011;4046;48.774;8.732;2023-09-18T08:00:04;1.70;;;1.60;;
8001;SDS011;4046;48.774;8.732;2023-09-18T08:02:34;1.83;;;1.20;;
8001;SDS011;4046;48.774;8.732;2023-09-18T08:05:00;2.00;;;1.20;;
8001;SDS011;4046;48.774;8.732;2023-09-18T08:07:27;1.93;;;1.60;;
8001;SDS011;4046;48.774;8.732;2023-09-18T08:09:53;1.80;;;1.10;;
8001;SDS011;4046;48.774;8.732;2023-09-18T08:12:19;1.50;;;1.20;;
8001;SDS011;4046;48.774;8.732;2023-09-18T08:14:45;2.83;;;1.60;;
8001;SDS011;4046;48.774;8.732;2023-09-18T08:17:12;1.50;;;1.20;;
8001;SDS011;4046;48.774;8.732;2023-09-18T08:19:38;1.90;;;1.30;;
8001;SDS011;4046;48.774;8.732;2023-09-18T08:22:05;1.37;;;1.07;;
8001;SDS011;4046;48.774;8.732;2023-09-18T08:24:31;1.67;;;1.27;;
8001;SDS011;4046;48.774;8.732;2023-09-18T08:26:57;2.50;;;1.23;;
8001;SDS011;4046;48.774;8.732;2023-09-18T08:29:22;2.70;;;1.30;;
8001;SDS011;4046;48.774;8.732;2023-09-18T08:31:48;1.30;;;1.17;;
8001;SDS011;4046;48.774;8.732;2023-09-18T08:34:15;1.57;;;1.20;;
8001;SDS011;4046;48.774;8.732;2023-09-18T08:36:42;1.80;;;1.20;;
8001;SDS011;4046;48.774;8.732;2023-09-18T08:39:07;1.40;;;1.20;;
8001;SDS011;4046;48.774;8.732;2023-09-18T08:41:37;1.90;;;1.30;;
8001;SDS011;4046;48.774;8.732;2023-09-18T08:44:07;2.63;;;1.40;;
8001;SDS011;4046;48.774;8.732;2023-09-18T08:46:34;1.47;;;1.10;;
8001;SDS011;4046;48.774;8.732;2023-09-18T08:49:00;1.50;;;1.40;;
8001;SDS011;4046;48.774;8.732;2023-09-18T08:51:27;1.63;;;1.07;;
8001;SDS011;4046;48.774;8.732;2023-09-18T08:53:54;1.53;;;1.03;;
8001;SDS011;4046;48.774;8.732;2023-09-18T08:56:20;1.33;;;1.10;;
8001;SDS011;4046;48.774;8.732;2023-09-18T08:58:47;1.40;;;1.17;;
8001;SDS011;4046;48.774;8.732;2023-09-18T09:01:13;1.37;;;1.13;;
8001;SDS011;4046;48.774;8.732;2023-09-18T09:03:42;1.30;;;0.90;;
8001;SDS011;4046;48.774;8.732;2023-09-18T09:06:11;2.27;;;0.90;;
8001;SDS011;4046;48.774;8.732;2023-09-18T09:08:37;1.87;;;1.13;;
8001;SDS011;4046;48.774;8.732;2023-09-18T09:11:03;1.30;;;0.90;;
8001;SDS011;4046;48.774;8.732;2023-09-18T09:13:29;1.40;;;1.07;;
8001;SDS011;4046;48.774;8.732;2023-09-18T09:15:56;1.87;;;1.07;;
8001;SDS011;4046;48.774;8.732;2023-09-18T09:18:27;1.30;;;1.20;;
8001;SDS011;4046;48.774;8.732;2023-09-18T09:20:58;1.87;;;1.37;;
8001;SDS011;4046;48.774;8.732;2023-09-18T09:23:26;2.67;;;1.10;;
8001;SDS011;4046;48.774;8.732;2023-09-18T09:25:53;1.30;;;1.10;;
8001;SDS011;4046;48.774;8.732;2023-09-18T09:28:37;2.47;;;1.20;;
8001;SDS011;4046;48.774;8.732;2023-09-18T09:31:03;1.30;;;1.03;;
8001;SDS011;4046;48.774;8.732;2023-09-18T09:33:29;1.50;;;1.20;;
8001;SDS011;4046;48.774;8.732;2023-09-18T09:35:56;1.40;;;1.10;;
8001;SDS011;4046;48.774;8.732;2023-09-18T09:38:29;1.90;;;1.07;;
8001;SDS011;4046;48.774;8.732;2023-09-18T09:41:02;2.07;;;1.17;;
8001;SDS011;4046;48.774;8.732;2023-09-18T09:43:32;1.40;;;1.10;;
8001;SDS011;4046;48.774;8.732;2023-09-18T09:45:59;1.60;;;1.20;;
8001;SDS011;4046;48.774;8.732;2023-09-18T09:48:29;1.33;;;1.07;;
8001;SDS011;4046;48.774;8.732;2023-09-18T09:50:59;2.00;;;1.27;;
8001;SDS011;4046;48.774;8.732;2023-09-18T09:53:44;2.17;;;1.00;;
8001;SDS011;4046;48.774;8.732;2023-09-18T09:56:13;2.73;;;1.07;;
8001;SDS011;4046;48.774;8.732;2023-09-18T09:58:39;1.20;;;1.00;;
8001;SDS011;4046;48.774;8.732;2023-09-18T10:01:09;1.30;;;1.10;;
8001;SDS011;4046;48.774;8.732;2023-09-18T10:03:44;2.30;;;0.90;;
8001;SDS011;4046;48.774;8.732;2023-09-18T10:06:10;1.93;;;1.10;;
8001;SDS011;4046;48.774;8.732;2023-09-18T10:08:38;1.70;;;1.10;;
8001;SDS011;4046;48.774;8.732;2023-09-18T10:11:05;1.30;;;0.90;;
8001;SDS011;4046;48.774;8.732;2023-09-18T10:16:12;1.90;;;1.07;;
8001;SDS011;4046;48.774;8.732;2023-09-18T10:18:44;1.30;;;0.90;;
8001;SDS011;4046;48.774;8.732;2023-09-18T10:24:28;1.40;;;0.90;;
8001;SDS011;4046;48.774;8.732;2023-09-18T10:29:26;2.00;;;1.30;;
8001;SDS011;4046;48.774;8.732;2023-09-18T10:31:53;1.70;;;1.10;;
8001;SDS011;4046;48.774;8.732;2023-09-18T10:34:19;1.63;;;1.00;;
8001;SDS011;4046;48.774;8.732;2023-09-18T10:36:47;1.63;;;0.97;;
8001;SDS011;4046;48.774;8.732;2023-09-18T10:39:14;1.93;;;1.00;;
8001;SDS011;4046;48.774;8.732;2023-09-18T10:41:48;1.30;;;0.90;;
8001;SDS011;4046;48.774;8.732;2023-09-18T10:44:18;2.00;;;1.33;;
8001;SDS011;4046;48.774;8.732;2023-09-18T10:46:47;1.60;;;1.00;;
8001;SDS011;4046;48.774;8.732;2023-09-18T10:49:18;1.90;;;1.23;;
8001;SDS011;4046;48.774;8.732;2023-09-18T10:51:45;1.40;;;1.07;;
8001;SDS011;4046;48.774;8.732;2023-09-18T10:54:14;1.33;;;1.00;;
8001;SDS011;4046;48.774;8.732;2023-09-18T10:56:42;1.60;;;0.97;;
8001;SDS011;4046;48.774;8.732;2023-09-18T10:59:08;1.37;;;0.90;;
8001;SDS011;4046;48.774;8.732;2023-09-18T11:01:35;1.70;;;0.90;;
8001;SDS011;4046;48.774;8.732;2023-09-18T11:04:05;1.43;;;0.90;;
8001;SDS011;4046;48.774;8.732;2023-09-18T11:22:49;1.30;;;0.90;;
8001;SDS011;4046;48.774;8.732;2023-09-18T11:28:07;1.60;;;1.07;;
8001;SDS011;4046;48.774;8.732;2023-09-18T11:30:53;1.40;;;1.03;;
8001;SDS011;4046;48.774;8.732;2023-09-18T11:33:39;1.77;;;0.80;;
8001;SDS011;4046;48.774;8.732;2023-09-18T11:36:12;1.30;;;0.97;;
8001;SDS011;4046;48.774;8.732;2023-09-18T11:41:29;1.93;;;1.00;;
8001;SDS011;4046;48.774;8.732;2023-09-18T11:46:48;1.27;;;0.80;;
8001;SDS011;4046;48.774;8.732;2023-09-18T11:49:20;1.50;;;0.90;;
8001;SDS011;4046;48.774;8.732;2023-09-18T11:51:47;2.33;;;1.00;;
8001;SDS011;4046;48.774;8.732;2023-09-18T11:54:15;1.40;;;0.97;;
8001;SDS011;4046;48.774;8.732;2023-09-18T11:56:42;1.20;;;0.90;;
8001;SDS011;4046;48.774;8.732;2023-09-18T11:59:09;1.80;;;1.00;;
8001;SDS011;4046;48.774;8.732;2023-09-18T12:01:35;1.30;;;0.90;;
8001;SDS011;4046;48.774;8.732;2023-09-18T12:04:04;1.60;;;0.90;;
8001;SDS011;4046;48.774;8.732;2023-09-18T12:06:41;2.60;;;1.00;;
8001;SDS011;4046;48.774;8.732;2023-09-18T12:09:07;1.20;;;0.87;;
8001;SDS011;4046;48.774;8.732;2023-09-18T12:11:34;2.90;;;1.20;;
8001;SDS011;4046;48.774;8.732;2023-09-18T12:14:00;1.40;;;0.90;;
8001;SDS011;4046;48.774;8.732;2023-09-18T12:16:27;1.63;;;0.90;;
8001;SDS011;4046;48.774;8.732;2023-09-18T12:18:53;1.30;;;0.90;;
8001;SDS011;4046;48.774;8.732;2023-09-18T12:21:19;1.50;;;0.90;;
8001;SDS011;4046;48.774;8.732;2023-09-18T12:23:45;1.30;;;0.97;;
8001;SDS011;4046;48.774;8.732;2023-09-18T12:26:12;1.57;;;0.90;;
8001;SDS011;4046;48.774;8.732;2023-09-18T12:28:40;1.83;;;1.10;;
8001;SDS011;4046;48.774;8.732;2023-09-18T12:31:09;1.40;;;1.27;;
8001;SDS011;4046;48.774;8.732;2023-09-18T12:33:37;1.50;;;1.00;;
8001;SDS011;4046;48.774;8.732;2023-09-18T12:36:04;1.30;;;0.90;;
8001;SDS011;4046;48.774;8.732;2023-09-18T12:38:31;3.30;;;1.10;;
8001;SDS011;4046;48.774;8.732;2023-09-18T12:40:57;4.90;;;1.30;;
8001;SDS011;4046;48.774;8.732;2023-09-18T12:43:34;3.30;;;1.13;;
8001;SDS011;4046;48.774;8.732;2023-09-18T12:46:05;4.37;;;0.90;;
8001;SDS011;4046;48.774;8.732;2023-09-18T12:48:32;1.60;;;1.10;;
8001;SDS011;4046;48.774;8.732;2023-09-18T12:51:06;1.60;;;1.00;;
8001;SDS011;4046;48.774;8.732;2023-09-18T12:53:32;1.40;;;0.90;;
8001;SDS011;4046;48.774;8.732;2023-09-18T12:56:05;5.70;;;1.27;;
8001;SDS011;4046;48.774;8.732;2023-09-18T12:58:35;2.43;;;1.20;;
8001;SDS011;4046;48.774;8.732;2023-09-18T13:01:08;2.60;;;1.43;;
8001;SDS011;4046;48.774;8.732;2023-09-18T13:03:35;2.23;;;1.30;;
8001;SDS011;4046;48.774;8.732;2023-09-18T13:06:07;2.10;;;1.37;;
8001;SDS011;4046;48.774;8.732;2023-09-18T13:08:37;3.00;;;1.23;;
8001;SDS011;4046;48.774;8.732;2023-09-18T13:11:03;2.50;;;1.17;;
8001;SDS011;4046;48.774;8.732;2023-09-18T13:13:30;3.20;;;1.00;;
8001;SDS011;4046;48.774;8.732;2023-09-18T13:15:57;2.33;;;1.23;;
8001;SDS011;4046;48.774;8.732;2023-09-18T13:18:25;2.17;;;1.37;;
8001;SDS011;4046;48.774;8.732;2023-09-18T13:20:51;1.93;;;1.03;;
8001;SDS011;4046;48.774;8.732;2023-09-18T13:23:17;2.00;;;1.10;;
8001;SDS011;4046;48.774;8.732;2023-09-18T13:25:43;1.50;;;1.17;;
8001;SDS011;4046;48.774;8.732;2023-09-18T13:28:11;2.50;;;1.10;;
8001;SDS011;4046;48.774;8.732;2023-09-18T13:30:38;1.20;;;0.90;;
8001;SDS011;4046;48.774;8.732;2023-09-18T13:33:06;1.40;;;0.97;;
8001;SDS011;4046;48.774;8.732;2023-09-18T13:35:40;2.07;;;1.20;;
8001;SDS011;4046;48.774;8.732;2023-09-18T13:38:07;1.83;;;0.93;;
8001;SDS011;4046;48.774;8.732;2023-09-18T13:40:40;1.50;;;1.13;;
8001;SDS011;4046;48.774;8.732;2023-09-18T13:43:06;1.47;;;1.03;;
8001;SDS011;4046;48.774;8.732;2023-09-18T13:45:34;1.37;;;0.93;;
8001;SDS011;4046;48.774;8.732;2023-09-18T13:48:01;1.97;;;1.00;;
8001;SDS011;4046;48.774;8.732;2023-09-18T13:50:27;2.70;;;1.00;;
8001;SDS011;4046;48.774;8.732;2023-09-18T13:52:53;1.87;;;0.83;;
8001;SDS011;4046;48.774;8.732;2023-09-18T13:55:19;3.77;;;1.07;;
8001;SDS011;4046;48.774;8.732;2023-09-18T13:57:46;1.87;;;1.00;;
8001;SDS011;4046;48.774;8.732;2023-09-18T14:00:12;3.63;;;1.10;;
8001;SDS011;4046;48.774;8.732;2023-09-18T14:02:39;1.40;;;0.97;;
8001;SDS011;4046;48.774;8.732;2023-09-18T14:05:06;1.20;;;1.00;;
8001;SDS011;4046;48.774;8.732;2023-09-18T14:07:33;1.87;;;1.00;;
8001;SDS011;4046;48.774;8.732;2023-09-18T14:09:59;2.50;;;1.10;;
8001;SDS011;4046;48.774;8.732;2023-09-18T14:12:29;1.40;;;1.10;;
8001;SDS011;4046;48.774;8.732;2023-09-18T14:14:55;1.30;;;1.00;;
8001;SDS011;4046;48.774;8.732;2023-09-18T14:17:22;2.80;;;1.00;;
8001;SDS011;4046;48.774;8.732;2023-09-18T14:19:48;2.47;;;1.20;;
8001;SDS011;4046;48.774;8.732;2023-09-18T14:22:14;1.30;;;0.87;;
8001;SDS011;4046;48.774;8.732;2023-09-18T14:24:40;1.60;;;1.00;;
8001;SDS011;4046;48.774;8.732;2023-09-18T14:27:06;1.60;;;1.10;;
8001;SDS011;4046;48.774;8.732;2023-09-18T14:29:33;2.57;;;1.10;;
8001;SDS011;4046;48.774;8.732;2023-09-18T14:31:59;1.30;;;1.00;;
8001;SDS011;4046;48.774;8.732;2023-09-18T14:34:26;1.30;;;1.10;;
8001;SDS011;4046;48.774;8.732;2023-09-18T14:36:51;1.67;;;1.10;;
8001;SDS011;4046;48.774;8.732;2023-09-18T14:39:17;1.40;;;1.10;;
8001;SDS011;4046;48.774;8.732;2023-09-18T14:41:43;1.30;;;1.00;;
8001;SDS011;4046;48.774;8.732;2023-09-18T14:44:09;1.27;;;0.80;;
8001;SDS011;4046;48.774;8.732;2023-09-18T14:46:35;4.07;;;0.97;;
8001;SDS011;4046;48.774;8.732;2023-09-18T14:49:05;1.60;;;1.30;;
8001;SDS011;4046;48.774;8.732;2023-09-18T14:51:34;1.40;;;0.93;;
8001;SDS011;4046;48.774;8.732;2023-09-18T14:54:00;1.20;;;0.90;;
8001;SDS011;4046;48.774;8.732;2023-09-18T14:56:27;1.40;;;1.00;;
8001;SDS011;4046;48.774;8.732;2023-09-18T14:58:53;1.57;;;1.10;;
8001;SDS011;4046;48.774;8.732;2023-09-18T15:01:21;1.70;;;0.80;;
8001;SDS011;4046;48.774;8.732;2023-09-18T15:03:47;1.27;;;0.90;;
8001;SDS011;4046;48.774;8.732;2023-09-18T15:06:14;1.30;;;1.00;;
8001;SDS011;4046;48.774;8.732;2023-09-18T15:08:40;1.40;;;1.20;;
8001;SDS011;4046;48.774;8.732;2023-09-18T15:11:06;1.40;;;1.10;;
8001;SDS011;4046;48.774;8.732;2023-09-18T15:13:32;1.27;;;1.00;;
8001;SDS011;4046;48.774;8.732;2023-09-18T15:16:00;1.30;;;1.10;;
8001;SDS011;4046;48.774;8.732;2023-09-18T15:18:26;1.57;;;1.23;;
8001;SDS011;4046;48.774;8.732;2023-09-18T15:20:52;4.90;;;1.20;;
8001;SDS011;4046;48.774;8.732;2023-09-18T15:23:23;1.40;;;1.00;;
8001;SDS011;4046;48.774;8.732;2023-09-18T15:25:49;1.40;;;1.00;;
8001;SDS011;4046;48.774;8.732;2023-09-18T15:28:16;1.20;;;0.90;;
8001;SDS011;4046;48.774;8.732;2023-09-18T15:30:45;1.37;;;1.00;;
8001;SDS011;4046;48.774;8.732;2023-09-18T15:33:11;1.40;;;0.90;;
8001;SDS011;4046;48.774;8.732;2023-09-18T15:35:38;1.20;;;0.80;;
8001;SDS011;4046;48.774;8.732;2023-09-18T15:38:04;1.40;;;1.13;;
8001;SDS011;4046;48.774;8.732;2023-09-18T15:40:32;1.87;;;1.00;;
8001;SDS011;4046;48.774;8.732;2023-09-18T15:42:58;1.20;;;0.90;;
8001;SDS011;4046;48.774;8.732;2023-09-18T15:45:24;1.50;;;0.80;;
8001;SDS011;4046;48.774;8.732;2023-09-18T15:47:50;1.80;;;1.00;;
8001;SDS011;4046;48.774;8.732;2023-09-18T15:50:16;1.57;;;1.03;;